createdAt,value
2023-01-18T00:00:33.358Z,4.73
2023-01-18T00:03:01.594Z,5.20
2023-01-18T00:05:29.806Z,4.77
2023-01-18T00:07:57.996Z,4.80
2023-01-18T00:10:27.567Z,5.40
2023-01-18T00:12:56.409Z,4.63
2023-01-18T00:15:24.724Z,4.33
2023-01-18T00:17:52.939Z,4.90
2023-01-18T00:20:22.210Z,4.50
2023-01-18T00:22:50.621Z,4.50
2023-01-18T00:25:19.096Z,4.50
2023-01-18T00:27:49.535Z,4.53
2023-01-18T00:30:18.991Z,4.10
2023-01-18T00:32:47.249Z,4.00
2023-01-18T00:35:15.433Z,4.33
2023-01-18T00:37:45.124Z,4.73
2023-01-18T00:40:13.538Z,4.37
2023-01-18T00:43:00.292Z,4.50
2023-01-18T00:45:30.162Z,3.07
2023-01-18T00:47:58.358Z,3.10
2023-01-18T00:50:26.539Z,3.07
2023-01-18T00:52:57.831Z,3.17
2023-01-18T00:55:26.278Z,2.80
2023-01-18T00:57:54.495Z,3.00
2023-01-18T01:00:28.685Z,3.20
2023-01-18T01:02:58.736Z,2.73
2023-01-18T01:05:45.502Z,2.60
2023-01-18T01:08:16.992Z,2.80
2023-01-18T01:10:46.596Z,3.13
2023-01-18T01:13:32.693Z,2.43
2023-01-18T01:16:18.720Z,3.03
2023-01-18T01:19:05.748Z,3.00
2023-01-18T01:21:51.784Z,2.87
2023-01-18T01:24:37.540Z,3.27
2023-01-18T01:27:05.789Z,3.23
2023-01-18T01:29:34.232Z,3.13
2023-01-18T01:32:03.388Z,3.30
2023-01-18T01:34:33.273Z,3.17
2023-01-18T01:37:01.634Z,3.20
2023-01-18T01:39:30.462Z,3.47
2023-01-18T01:41:58.971Z,3.13
2023-01-18T01:44:42.663Z,3.77
2023-01-18T01:47:13.237Z,3.57
2023-01-18T01:49:44.465Z,3.13
2023-01-18T01:52:14.800Z,3.03
2023-01-18T01:54:44.381Z,3.20
2023-01-18T01:57:14.657Z,3.50
2023-01-18T01:59:44.399Z,3.17
2023-01-18T02:02:13.311Z,3.60
2023-01-18T02:04:44.241Z,3.03
2023-01-18T02:07:12.758Z,3.27
2023-01-18T02:09:41.259Z,3.23
2023-01-18T02:12:09.456Z,3.47
2023-01-18T02:14:37.681Z,3.17
2023-01-18T02:17:10.351Z,3.00
2023-01-18T02:19:53.491Z,3.40
2023-01-18T02:22:29.313Z,2.93
2023-01-18T02:25:06.175Z,3.27
2023-01-18T02:27:43.463Z,3.00
2023-01-18T02:30:17.879Z,3.30
2023-01-18T02:32:52.725Z,2.90
2023-01-18T02:35:24.423Z,2.93
2023-01-18T02:37:57.993Z,3.30
2023-01-18T02:40:30.333Z,3.47
2023-01-18T02:43:18.154Z,3.37
2023-01-18T02:46:06.617Z,3.57
2023-01-18T02:48:37.228Z,2.90
2023-01-18T02:51:05.654Z,3.30
2023-01-18T02:53:35.330Z,3.13
2023-01-18T02:56:05.243Z,3.10
2023-01-18T02:58:35.389Z,3.17
2023-01-18T03:01:06.292Z,3.47
2023-01-18T03:03:35.523Z,3.00
2023-01-18T03:06:05.151Z,3.40
2023-01-18T03:08:36.548Z,2.57
2023-01-18T03:11:06.265Z,3.40
2023-01-18T03:13:42.059Z,3.00
2023-01-18T03:16:16.299Z,2.83
2023-01-18T03:19:01.248Z,3.20
2023-01-18T03:21:36.490Z,3.20
2023-01-18T03:24:05.250Z,3.03
2023-01-18T03:26:35.511Z,3.10
2023-01-18T03:29:22.797Z,2.93
2023-01-18T03:32:11.933Z,3.10
2023-01-18T03:34:42.578Z,3.00
2023-01-18T03:37:12.965Z,3.27
2023-01-18T03:39:42.881Z,3.40
2023-01-18T03:42:13.946Z,3.00
2023-01-18T03:44:44.662Z,2.70
2023-01-18T03:47:14.147Z,3.10
2023-01-18T03:49:42.353Z,3.40
2023-01-18T03:52:16.231Z,3.10
2023-01-18T03:54:48.386Z,2.73
2023-01-18T03:57:19.245Z,2.63
2023-01-18T03:59:48.037Z,3.10
2023-01-18T04:02:18.302Z,2.80
2023-01-18T04:04:46.433Z,2.40
2023-01-18T04:07:14.631Z,3.43
2023-01-18T04:09:42.818Z,3.17
2023-01-18T04:12:10.963Z,2.83
2023-01-18T04:14:39.165Z,2.93
2023-01-18T04:17:07.320Z,2.70
2023-01-18T04:19:36.881Z,2.97
2023-01-18T04:22:05.087Z,2.63
2023-01-18T04:24:33.312Z,2.43
2023-01-18T04:27:01.436Z,2.90
2023-01-18T04:29:29.777Z,2.73
2023-01-18T04:31:57.921Z,2.50
2023-01-18T04:34:26.168Z,2.30
2023-01-18T04:36:55.728Z,2.70
2023-01-18T04:39:23.952Z,2.80
2023-01-18T04:41:52.113Z,2.83
2023-01-18T04:44:20.316Z,3.17
2023-01-18T04:46:49.135Z,2.83
2023-01-18T04:49:17.494Z,2.47
2023-01-18T04:51:46.201Z,2.53
2023-01-18T04:54:17.362Z,3.00
2023-01-18T04:56:45.542Z,2.37
2023-01-18T04:59:16.471Z,2.60
2023-01-18T05:01:44.691Z,2.33
2023-01-18T05:04:12.943Z,2.50
2023-01-18T05:06:41.129Z,2.50
2023-01-18T05:09:09.329Z,3.10
2023-01-18T05:11:38.892Z,2.50
2023-01-18T05:14:07.017Z,2.40
2023-01-18T05:16:35.252Z,2.60
2023-01-18T05:19:03.383Z,2.30
2023-01-18T05:21:31.525Z,2.67
2023-01-18T05:23:59.629Z,2.73
2023-01-18T05:26:27.793Z,2.57
2023-01-18T05:28:59.409Z,2.27
2023-01-18T05:31:27.636Z,2.60
2023-01-18T05:33:57.615Z,2.73
2023-01-18T05:36:25.837Z,2.60
2023-01-18T05:38:54.974Z,3.20
2023-01-18T05:41:23.217Z,3.00
2023-01-18T05:43:51.423Z,2.43
2023-01-18T05:46:20.966Z,3.00
2023-01-18T05:48:49.127Z,2.50
2023-01-18T05:51:17.248Z,3.07
2023-01-18T05:53:45.356Z,2.53
2023-01-18T05:56:13.514Z,2.33
2023-01-18T05:58:41.704Z,2.60
2023-01-18T06:01:09.969Z,2.23
2023-01-18T06:03:39.489Z,2.20
2023-01-18T06:06:08.731Z,2.23
2023-01-18T06:08:36.966Z,2.60
2023-01-18T06:11:06.346Z,2.60
2023-01-18T06:13:34.592Z,2.33
2023-01-18T06:16:03.266Z,2.57
2023-01-18T06:18:33.770Z,2.70
2023-01-18T06:21:03.963Z,2.67
2023-01-18T06:23:32.354Z,2.40
2023-01-18T06:26:00.745Z,2.67
2023-01-18T06:28:30.634Z,2.30
2023-01-18T06:30:59.041Z,2.30
2023-01-18T06:33:27.287Z,2.30
2023-01-18T06:35:55.453Z,2.33
2023-01-18T06:38:25.013Z,2.23
2023-01-18T06:40:53.203Z,2.40
2023-01-18T06:43:21.733Z,2.37
2023-01-18T06:45:53.404Z,2.10
2023-01-18T06:48:22.104Z,2.23
2023-01-18T06:50:50.300Z,2.20
2023-01-18T06:53:18.464Z,2.43
2023-01-18T06:55:53.721Z,2.30
2023-01-18T06:58:21.967Z,2.13
2023-01-18T07:00:50.274Z,2.30
2023-01-18T07:03:18.439Z,2.40
2023-01-18T07:05:48.046Z,2.53
2023-01-18T07:08:16.227Z,2.23
2023-01-18T07:10:44.396Z,2.20
2023-01-18T07:13:13.903Z,2.60
2023-01-18T07:15:42.170Z,2.40
2023-01-18T07:18:10.321Z,2.50
2023-01-18T07:20:38.823Z,2.70
2023-01-18T07:23:07.012Z,2.60
2023-01-18T07:25:35.303Z,2.93
2023-01-18T07:28:04.745Z,2.67
2023-01-18T07:30:34.324Z,2.60
2023-01-18T07:33:02.437Z,2.60
2023-01-18T07:35:30.663Z,2.43
2023-01-18T07:37:58.954Z,2.40
2023-01-18T07:40:27.139Z,2.57
2023-01-18T07:42:58.969Z,2.67
2023-01-18T07:45:27.288Z,2.30
2023-01-18T07:47:56.838Z,2.93
2023-01-18T07:50:25.007Z,3.10
2023-01-18T07:52:53.135Z,3.00
2023-01-18T07:55:21.619Z,2.83
2023-01-18T07:57:49.938Z,2.67
2023-01-18T08:00:18.431Z,2.80
2023-01-18T08:02:46.607Z,3.10
2023-01-18T08:05:18.182Z,2.70
2023-01-18T08:07:46.348Z,2.53
2023-01-18T08:10:15.134Z,2.50
2023-01-18T08:12:43.336Z,2.60
2023-01-18T08:15:11.979Z,2.83
2023-01-18T08:17:40.332Z,3.00
2023-01-18T08:20:09.410Z,2.90
2023-01-18T08:22:38.928Z,3.50
2023-01-18T08:25:07.503Z,3.00
2023-01-18T08:27:35.641Z,3.17
2023-01-18T08:30:03.822Z,3.40
2023-01-18T08:32:31.991Z,3.40
2023-01-18T08:35:00.464Z,3.80
2023-01-18T08:37:29.495Z,4.00
2023-01-18T08:39:58.986Z,3.93
2023-01-18T08:42:27.590Z,4.20
2023-01-18T08:44:55.803Z,3.87
2023-01-18T08:47:24.091Z,3.50
2023-01-18T08:49:52.241Z,4.30
2023-01-18T08:52:20.421Z,4.10
2023-01-18T08:54:48.629Z,4.07
2023-01-18T08:57:18.103Z,3.70
2023-01-18T08:59:46.216Z,4.20
2023-01-18T09:02:14.601Z,4.10
2023-01-18T09:04:47.350Z,4.10
2023-01-18T09:07:15.589Z,4.70
2023-01-18T09:09:44.817Z,4.23
2023-01-18T09:12:13.030Z,4.00
2023-01-18T09:14:42.591Z,3.73
2023-01-18T09:17:10.755Z,3.97
2023-01-18T09:19:38.978Z,3.70
2023-01-18T09:22:07.373Z,3.70
2023-01-18T09:24:36.904Z,4.03
2023-01-18T09:27:05.643Z,3.83
2023-01-18T09:29:33.925Z,3.47
2023-01-18T09:32:03.492Z,3.20
2023-01-18T09:34:31.638Z,3.93
2023-01-18T09:36:59.748Z,3.17
2023-01-18T09:39:28.098Z,3.50
2023-01-18T09:41:57.731Z,2.90
2023-01-18T09:44:30.305Z,2.87
2023-01-18T09:46:59.971Z,2.90
2023-01-18T09:49:34.675Z,2.80
2023-01-18T09:52:09.281Z,3.27
2023-01-18T09:54:42.919Z,3.17
2023-01-18T09:57:15.095Z,3.30
2023-01-18T09:59:44.747Z,3.10
2023-01-18T10:02:18.320Z,3.10
2023-01-18T10:04:50.231Z,3.20
2023-01-18T10:07:19.772Z,3.10
2023-01-18T10:09:49.589Z,3.20
2023-01-18T10:12:23.613Z,3.30
2023-01-18T10:14:55.196Z,2.87
2023-01-18T10:17:25.447Z,3.13
2023-01-18T10:19:55.022Z,3.00
2023-01-18T10:22:25.347Z,3.33
2023-01-18T10:24:57.505Z,3.30
2023-01-18T10:27:36.736Z,3.30
2023-01-18T10:30:14.172Z,3.27
2023-01-18T10:32:45.169Z,3.30
2023-01-18T10:35:18.371Z,3.23
2023-01-18T10:37:46.819Z,3.87
2023-01-18T10:40:15.966Z,3.50
2023-01-18T10:42:46.433Z,3.27
2023-01-18T10:45:20.231Z,3.70
2023-01-18T10:47:48.993Z,3.93
2023-01-18T10:50:19.912Z,3.27
2023-01-18T10:52:48.090Z,3.73
2023-01-18T10:55:17.246Z,3.57
2023-01-18T10:57:47.940Z,3.67
2023-01-18T11:00:24.214Z,3.63
2023-01-18T11:02:53.428Z,3.80
2023-01-18T11:05:25.905Z,3.37
2023-01-18T11:08:08.980Z,4.03
2023-01-18T11:10:38.731Z,4.17
2023-01-18T11:13:25.051Z,3.60
2023-01-18T11:16:04.337Z,3.67
2023-01-18T11:18:32.547Z,3.57
2023-01-18T11:21:02.095Z,3.47
2023-01-18T11:23:35.538Z,3.07
2023-01-18T11:26:05.658Z,3.10
2023-01-18T11:28:37.828Z,3.77
2023-01-18T11:31:10.402Z,3.50
2023-01-18T11:33:41.110Z,3.70
2023-01-18T11:36:10.781Z,3.70
2023-01-18T11:38:38.933Z,3.60
2023-01-18T11:41:15.362Z,3.70
2023-01-18T11:43:46.201Z,3.13
2023-01-18T11:46:35.413Z,3.03
2023-01-18T11:49:09.071Z,3.17
2023-01-18T11:51:43.671Z,3.67
2023-01-18T11:54:22.600Z,2.90
2023-01-18T11:56:51.895Z,2.90
2023-01-18T11:59:22.412Z,2.70
2023-01-18T12:01:58.133Z,2.70
2023-01-18T12:04:33.232Z,2.77
2023-01-18T12:07:10.568Z,2.70
2023-01-18T12:09:44.637Z,2.37
2023-01-18T12:12:20.924Z,2.37
2023-01-18T12:14:56.992Z,2.07
2023-01-18T12:17:30.728Z,1.90
2023-01-18T12:20:01.654Z,0.90
2023-01-18T12:22:55.960Z,0.80
2023-01-18T12:25:34.085Z,0.83
2023-01-18T12:28:08.450Z,0.70
2023-01-18T12:30:54.800Z,0.70
2023-01-18T12:33:42.822Z,0.80
2023-01-18T12:36:22.043Z,0.50
2023-01-18T12:38:53.022Z,0.73
2023-01-18T12:41:26.316Z,0.90
2023-01-18T12:44:00.632Z,1.10
2023-01-18T12:46:30.129Z,1.37
2023-01-18T12:48:59.720Z,1.30
2023-01-18T12:51:28.959Z,1.10
2023-01-18T12:53:59.874Z,1.30
2023-01-18T12:56:29.927Z,1.20
2023-01-18T12:58:58.870Z,1.63
2023-01-18T13:01:28.861Z,2.00
2023-01-18T13:03:59.423Z,1.40
2023-01-18T13:06:27.741Z,1.50
2023-01-18T13:08:59.506Z,1.30
2023-01-18T13:11:31.219Z,1.27
2023-01-18T13:14:05.319Z,1.47
2023-01-18T13:16:40.081Z,1.27
2023-01-18T13:19:10.615Z,1.10
2023-01-18T13:21:46.016Z,1.80
2023-01-18T13:24:20.499Z,1.40
2023-01-18T13:26:50.264Z,1.20
2023-01-18T13:29:25.702Z,1.40
2023-01-18T13:31:54.088Z,1.80
2023-01-18T13:34:26.524Z,1.70
2023-01-18T13:37:09.024Z,1.90
2023-01-18T13:39:46.592Z,1.70
2023-01-18T13:42:35.149Z,1.60
2023-01-18T13:45:17.945Z,1.60
2023-01-18T13:47:50.281Z,1.93
2023-01-18T13:50:42.316Z,1.70
2023-01-18T13:53:31.588Z,1.50
2023-01-18T13:56:34.213Z,1.40
2023-01-18T13:59:04.858Z,1.10
2023-01-18T14:01:35.452Z,1.20
2023-01-18T14:04:08.901Z,1.10
2023-01-18T14:06:38.648Z,0.93
2023-01-18T14:09:08.812Z,1.10
2023-01-18T14:11:38.196Z,1.00
2023-01-18T14:14:24.759Z,1.20
2023-01-18T14:16:57.263Z,1.03
2023-01-18T14:19:27.445Z,0.87
2023-01-18T14:22:10.479Z,0.93
2023-01-18T14:24:53.733Z,1.00
2023-01-18T14:27:24.228Z,1.03
2023-01-18T14:29:56.115Z,0.97
2023-01-18T14:32:26.157Z,1.00
2023-01-18T14:35:01.123Z,1.13
2023-01-18T14:37:30.169Z,2.10
2023-01-18T14:40:09.107Z,1.20
2023-01-18T14:42:39.933Z,1.63
2023-01-18T14:45:19.269Z,1.10
2023-01-18T14:47:48.373Z,1.00
2023-01-18T14:50:17.095Z,1.10
2023-01-18T14:52:45.296Z,1.10
2023-01-18T14:55:24.278Z,1.30
2023-01-18T14:57:53.155Z,1.53
2023-01-18T15:00:23.532Z,1.40
2023-01-18T15:02:51.767Z,1.50
2023-01-18T15:05:21.127Z,1.30
2023-01-18T15:07:53.014Z,1.00
2023-01-18T15:10:21.356Z,1.50
2023-01-18T15:12:51.438Z,1.33
2023-01-18T15:15:28.555Z,1.00
2023-01-18T15:18:01.022Z,1.10
2023-01-18T15:20:29.456Z,1.07
2023-01-18T15:22:58.189Z,1.40
2023-01-18T15:25:27.902Z,0.80
2023-01-18T15:27:56.323Z,1.33
2023-01-18T15:30:25.560Z,1.57
2023-01-18T15:32:55.801Z,1.17
2023-01-18T15:35:26.651Z,1.10
2023-01-18T15:37:54.829Z,0.83
2023-01-18T15:40:25.112Z,0.90
2023-01-18T15:42:57.686Z,1.10
2023-01-18T15:45:28.959Z,1.83
2023-01-18T15:47:58.544Z,0.90
2023-01-18T15:50:31.991Z,1.53
2023-01-18T15:53:09.829Z,2.00
2023-01-18T15:55:39.983Z,1.03
2023-01-18T15:58:11.525Z,1.10
2023-01-18T16:00:40.871Z,1.30
2023-01-18T16:03:18.854Z,1.00
2023-01-18T16:05:59.245Z,1.30
2023-01-18T16:08:27.646Z,1.10
2023-01-18T16:10:56.603Z,1.17
2023-01-18T16:13:31.997Z,1.10
2023-01-18T16:16:21.208Z,1.00
2023-01-18T16:18:51.211Z,1.30
2023-01-18T16:21:33.457Z,1.00
2023-01-18T16:24:01.712Z,0.80
2023-01-18T16:26:31.648Z,1.20
2023-01-18T16:29:06.575Z,1.20
2023-01-18T16:31:35.542Z,1.30
2023-01-18T16:34:04.121Z,1.10
2023-01-18T16:36:41.790Z,1.30
2023-01-18T16:39:10.317Z,1.40
2023-01-18T16:41:38.487Z,1.40
2023-01-18T16:44:06.769Z,1.50
2023-01-18T16:46:35.646Z,1.20
2023-01-18T16:49:04.163Z,1.33
2023-01-18T16:51:33.652Z,1.37
2023-01-18T16:54:01.935Z,1.30
2023-01-18T16:56:30.145Z,1.30
2023-01-18T16:58:58.445Z,1.50
2023-01-18T17:01:26.782Z,1.73
2023-01-18T17:03:54.979Z,1.60
2023-01-18T17:06:24.270Z,1.37
2023-01-18T17:08:53.811Z,1.50
2023-01-18T17:11:21.953Z,1.43
2023-01-18T17:13:50.919Z,1.60
2023-01-18T17:16:20.412Z,1.50
2023-01-18T17:18:49.780Z,1.60
2023-01-18T17:21:17.967Z,1.70
2023-01-18T17:23:46.368Z,1.57
2023-01-18T17:26:16.654Z,1.37
2023-01-18T17:28:45.330Z,1.57
2023-01-18T17:31:13.582Z,1.67
2023-01-18T17:33:42.900Z,2.10
2023-01-18T17:36:11.321Z,2.43
2023-01-18T17:38:39.629Z,1.87
2023-01-18T17:41:11.353Z,2.07
2023-01-18T17:43:42.900Z,2.40
2023-01-18T17:46:11.188Z,2.30
2023-01-18T17:48:40.167Z,2.07
2023-01-18T17:51:08.682Z,2.37
2023-01-18T17:53:37.532Z,2.40
2023-01-18T17:56:08.047Z,2.90
2023-01-18T17:58:36.292Z,2.77
2023-01-18T18:01:11.341Z,4.00
2023-01-18T18:03:39.668Z,2.57
2023-01-18T18:06:08.128Z,2.80
2023-01-18T18:08:36.770Z,1.87
2023-01-18T18:11:08.275Z,2.67
2023-01-18T18:13:36.680Z,1.83
2023-01-18T18:16:05.166Z,1.87
2023-01-18T18:18:34.953Z,2.47
2023-01-18T18:21:05.373Z,2.13
2023-01-18T18:23:34.191Z,2.53
2023-01-18T18:26:04.407Z,1.87
2023-01-18T18:28:33.212Z,2.03
2023-01-18T18:31:01.774Z,1.97
2023-01-18T18:33:30.222Z,1.87
2023-01-18T18:35:59.866Z,1.60
2023-01-18T18:38:28.144Z,2.73
2023-01-18T18:40:56.331Z,2.30
2023-01-18T18:43:25.221Z,2.53
2023-01-18T18:45:53.810Z,1.83
2023-01-18T18:48:22.140Z,2.03
2023-01-18T18:50:52.992Z,2.23
2023-01-18T18:53:29.559Z,2.10
2023-01-18T18:56:01.763Z,2.27
2023-01-18T18:58:31.104Z,2.10
2023-01-18T19:00:59.321Z,2.37
2023-01-18T19:03:27.601Z,1.70
2023-01-18T19:05:55.945Z,2.03
2023-01-18T19:08:25.633Z,2.00
2023-01-18T19:10:53.748Z,2.27
2023-01-18T19:13:21.901Z,1.80
2023-01-18T19:15:51.243Z,1.83
2023-01-18T19:18:19.483Z,2.27
2023-01-18T19:20:47.656Z,2.20
2023-01-18T19:23:15.839Z,1.87
2023-01-18T19:25:45.419Z,2.17
2023-01-18T19:28:13.568Z,1.90
2023-01-18T19:30:42.375Z,2.13
2023-01-18T19:33:11.005Z,1.80
2023-01-18T19:35:40.916Z,4.50
2023-01-18T19:38:09.584Z,1.97
2023-01-18T19:40:37.973Z,2.30
2023-01-18T19:43:07.548Z,2.10
2023-01-18T19:45:36.354Z,1.80
2023-01-18T19:48:05.117Z,1.87
2023-01-18T19:50:33.480Z,2.13
2023-01-18T19:53:02.025Z,1.63
2023-01-18T19:55:30.657Z,2.10
2023-01-18T19:58:00.908Z,2.17
2023-01-18T20:00:31.311Z,1.70
2023-01-18T20:03:00.431Z,2.20
2023-01-18T20:05:29.101Z,1.53
2023-01-18T20:07:57.539Z,1.67
2023-01-18T20:10:26.080Z,1.70
2023-01-18T20:12:54.281Z,1.90
2023-01-18T20:15:23.008Z,1.60
2023-01-18T20:17:52.544Z,2.20
2023-01-18T20:20:31.763Z,1.90
2023-01-18T20:23:01.582Z,1.90
2023-01-18T20:25:29.944Z,2.20
2023-01-18T20:27:58.235Z,2.03
2023-01-18T20:30:26.442Z,1.80
2023-01-18T20:32:56.285Z,1.90
2023-01-18T20:35:24.498Z,1.77
2023-01-18T20:37:54.361Z,2.03
2023-01-18T20:40:22.614Z,2.13
2023-01-18T20:42:50.771Z,2.00
2023-01-18T20:45:19.021Z,2.00
2023-01-18T20:47:47.216Z,1.57
2023-01-18T20:50:17.849Z,2.33
2023-01-18T20:52:46.428Z,2.10
2023-01-18T20:55:14.727Z,2.00
2023-01-18T20:57:43.171Z,2.23
2023-01-18T21:00:12.555Z,1.83
2023-01-18T21:02:41.955Z,2.00
2023-01-18T21:05:10.307Z,2.27
2023-01-18T21:07:41.704Z,2.03
2023-01-18T21:10:10.615Z,2.00
2023-01-18T21:12:38.863Z,2.13
2023-01-18T21:15:08.979Z,1.90
2023-01-18T21:17:37.236Z,2.53
2023-01-18T21:20:05.948Z,2.23
2023-01-18T21:22:34.119Z,2.20
2023-01-18T21:25:03.689Z,1.53
2023-01-18T21:27:33.024Z,1.50
2023-01-18T21:30:01.263Z,1.50
2023-01-18T21:32:29.867Z,1.40
2023-01-18T21:34:58.108Z,1.80
2023-01-18T21:37:27.741Z,2.17
2023-01-18T21:39:58.110Z,2.23
2023-01-18T21:42:45.243Z,2.00
2023-01-18T21:45:31.622Z,2.40
2023-01-18T21:48:00.831Z,1.77
2023-01-18T21:50:47.159Z,2.47
2023-01-18T21:53:33.297Z,2.30
2023-01-18T21:56:01.568Z,2.43
2023-01-18T21:58:49.169Z,2.37
2023-01-18T22:01:18.607Z,2.30
2023-01-18T22:04:04.532Z,2.43
2023-01-18T22:06:32.788Z,2.10
2023-01-18T22:09:00.990Z,2.13
2023-01-18T22:11:29.159Z,2.07
2023-01-18T22:13:59.509Z,2.20
2023-01-18T22:16:30.480Z,2.13
2023-01-18T22:18:59.208Z,2.53
2023-01-18T22:21:27.771Z,2.80
2023-01-18T22:23:56.392Z,2.40
2023-01-18T22:26:25.164Z,3.07
2023-01-18T22:28:53.418Z,2.63
2023-01-18T22:31:22.923Z,1.50
2023-01-18T22:33:51.090Z,1.60
2023-01-18T22:36:19.636Z,1.40
2023-01-18T22:38:47.811Z,1.40
2023-01-18T22:41:17.508Z,1.43
2023-01-18T22:43:46.168Z,1.60
2023-01-18T22:46:15.301Z,1.47
2023-01-18T22:48:45.174Z,2.17
2023-01-18T22:51:16.272Z,1.37
2023-01-18T22:53:45.214Z,1.43
2023-01-18T22:56:14.392Z,1.70
2023-01-18T22:58:42.610Z,1.20
2023-01-18T23:01:15.913Z,2.53
2023-01-18T23:03:45.914Z,2.03
2023-01-18T23:06:14.324Z,1.77
2023-01-18T23:08:45.967Z,1.90
2023-01-18T23:11:15.431Z,2.17
2023-01-18T23:13:43.862Z,1.60
2023-01-18T23:16:32.710Z,2.50
2023-01-18T23:19:02.246Z,1.57
2023-01-18T23:21:30.465Z,1.83
2023-01-18T23:23:58.669Z,1.53
2023-01-18T23:26:26.856Z,2.07
2023-01-18T23:28:54.975Z,1.80
2023-01-18T23:31:23.152Z,1.23
2023-01-18T23:33:51.408Z,1.10
2023-01-18T23:36:20.944Z,1.37
2023-01-18T23:39:06.583Z,1.03
2023-01-18T23:41:52.309Z,1.30
2023-01-18T23:44:38.439Z,1.27
2023-01-18T23:47:24.248Z,1.00
2023-01-18T23:50:10.156Z,1.00
2023-01-18T23:52:57.499Z,1.03
2023-01-18T23:55:25.696Z,1.20
2023-01-18T23:57:53.842Z,1.10
